Terminal Aerodrome Forecast
Issued by NWS

Home | Current Version | Previous Version | Text Only | Print | Product List | Glossary On
Versions: 1 2 3 4 5 6 7 8 9 10 11 12
000
FTUS42 KTAE 282300
TAFDHN
TAF
KDHN 282320Z 2900/2924 21003KT P6SM SCT250
     FM291500 14005KT P6SM SCT050 BKN250
     FM291800 17007KT P6SM BKN050 PROB30 2918/2924 3SM TSRA SCT025CB
      BKN050=

USA.gov is the U.S. government's official web portal to all federal, state and local government web resources and services.